South Armidale Weather

South Armidale Weather


Today's Observations
Date Time Temperature Humidity Dewpoint Wind Speed High Gust Wind Bearing Rainfall Rate Total Rainfall Pressure Gust Wind Chill Heat Index UV Index
17/08/18 02:05 5.7 52 -3.4 0.0 0.0 0 34.8 0.0 1013.0 0.0 5.7 5.7 0.0
17/08/18 02:04 5.7 52 -3.4 0.0 0.0 0 34.8 0.0 1013.0 0.0 5.7 5.7 0.0
17/08/18 02:03 5.7 52 -3.4 0.0 0.0 0 34.8 0.0 1013.0 0.0 5.7 5.7 0.0
17/08/18 02:02 5.7 52 -3.4 0.0 0.0 0 34.8 0.0 1013.0 0.0 5.7 5.7 0.0
17/08/18 02:01 5.7 52 -3.4 0.0 0.0 0 34.8 0.0 1013.0 0.0 5.7 5.7 0.0
17/08/18 02:00 5.7 52 -3.4 0.0 0.0 0 34.8 0.0 1013.0 0.0 5.7 5.7 0.0
17/08/18 01:59 5.8 52 -3.3 0.0 0.0 0 34.8 0.0 1013.0 0.0 5.8 5.8 0.0
17/08/18 01:58 5.8 52 -3.3 0.0 0.0 0 34.8 0.0 1013.0 0.0 5.8 5.8 0.0
17/08/18 01:57 5.8 52 -3.3 0.0 0.0 0 34.8 0.0 1013.0 0.0 5.8 5.8 0.0
17/08/18 01:56 5.8 52 -3.3 0.0 0.0 0 34.8 0.0 1013.0 0.0 5.8 5.8 0.0
17/08/18 01:55 6.0 51 -3.4 0.0 0.0 0 34.8 0.0 1013.0 0.0 6.0 6.0 0.0
17/08/18 01:54 6.0 51 -3.4 0.0 0.0 0 34.8 0.0 1013.0 0.0 6.0 6.0 0.0
17/08/18 01:53 6.0 51 -3.4 0.0 0.0 0 34.8 0.0 1013.0 0.0 6.0 6.0 0.0
17/08/18 01:52 6.0 51 -3.4 0.0 0.0 0 34.8 0.0 1013.0 0.0 6.0 6.0 0.0
17/08/18 01:51 6.0 51 -3.4 0.0 0.0 0 34.8 0.0 1013.0 0.0 6.0 6.0 0.0
17/08/18 01:50 6.0 51 -3.4 0.0 0.0 0 34.8 0.0 1013.0 0.0 6.0 6.0 0.0
17/08/18 01:49 6.0 51 -3.4 0.0 0.0 0 34.8 0.0 1013.0 0.0 6.0 6.0 0.0
17/08/18 01:48 6.0 51 -3.4 0.0 0.0 0 34.8 0.0 1013.0 0.0 6.0 6.0 0.0
17/08/18 01:47 6.0 51 -3.4 0.0 0.0 0 34.8 0.0 1013.0 0.0 6.0 6.0 0.0
17/08/18 01:46 6.0 51 -3.4 0.0 0.0 0 34.8 0.0 1013.0 0.0 6.0 6.0 0.0
17/08/18 01:45 6.1 51 -3.3 0.0 0.0 0 34.8 0.0 1013.0 0.0 6.1 6.1 0.0
17/08/18 01:44 6.1 51 -3.3 0.0 0.0 0 34.8 0.0 1013.0 0.0 6.1 6.1 0.0
17/08/18 01:43 6.1 51 -3.3 0.0 0.0 0 34.8 0.0 1013.0 0.0 6.1 6.1 0.0
17/08/18 01:42 6.1 51 -3.3 0.0 0.0 0 34.8 0.0 1013.0 0.0 6.1 6.1 0.0
17/08/18 01:41 6.1 51 -3.3 0.0 0.0 0 34.8 0.0 1013.0 0.0 6.1 6.1 0.0
17/08/18 01:40 6.1 50 -3.6 0.0 0.0 0 34.8 0.0 1013.0 0.0 6.1 6.1 0.0
17/08/18 01:39 6.1 51 -3.3 0.0 0.0 0 34.8 0.0 1012.0 0.0 6.1 6.1 0.0
17/08/18 01:38 6.2 51 -3.2 0.0 0.0 0 34.8 0.0 1012.0 0.0 6.2 6.2 0.0
17/08/18 01:37 6.2 50 -3.5 0.0 0.0 0 34.8 0.0 1012.0 0.0 6.2 6.2 0.0
17/08/18 01:36 6.2 50 -3.5 0.0 0.0 0 34.8 0.0 1012.0 0.0 6.2 6.2 0.0
17/08/18 01:35 6.2 50 -3.5 0.0 0.0 0 34.8 0.0 1012.0 0.0 6.2 6.2 0.0
17/08/18 01:34 6.3 50 -3.4 0.0 0.0 0 34.8 0.0 1012.0 0.0 6.3 6.3 0.0
17/08/18 01:33 6.3 50 -3.4 0.0 0.0 0 34.8 0.0 1012.0 0.0 6.3 6.3 0.0
17/08/18 01:32 6.3 50 -3.4 0.0 0.0 0 34.8 0.0 1012.0 0.0 6.3 6.3 0.0
17/08/18 01:31 6.3 50 -3.4 0.0 0.0 0 34.8 0.0 1012.0 0.0 6.3 6.3 0.0
17/08/18 01:30 6.3 50 -3.4 0.0 0.0 0 34.8 0.0 1012.0 0.0 6.3 6.3 0.0
17/08/18 01:29 6.3 50 -3.4 0.0 0.0 0 34.8 0.0 1012.0 0.0 6.3 6.3 0.0
17/08/18 01:28 6.4 50 -3.3 0.0 0.0 0 34.8 0.0 1012.0 0.0 6.4 6.4 0.0
17/08/18 01:27 7.4 49 -2.6 0.0 0.0 0 34.8 0.0 1012.0 0.0 7.4 7.4 0.0
17/08/18 01:26 7.4 49 -2.6 0.0 0.0 0 34.8 0.0 1012.0 0.0 7.4 7.4 0.0
17/08/18 01:25 7.4 49 -2.6 0.0 0.0 0 34.8 0.0 1012.0 0.0 7.4 7.4 0.0
17/08/18 01:24 7.4 49 -2.6 0.0 0.0 0 34.8 0.0 1012.0 0.0 7.4 7.4 0.0
17/08/18 01:23 7.4 49 -2.6 0.0 0.0 0 34.8 0.0 1012.0 0.0 7.4 7.4 0.0
17/08/18 01:22 7.4 49 -2.6 0.0 0.0 0 34.8 0.0 1012.0 0.0 7.4 7.4 0.0
17/08/18 01:21 7.4 49 -2.6 0.0 0.0 0 34.8 0.0 1012.0 0.0 7.4 7.4 0.0
17/08/18 01:20 7.4 49 -2.6 0.0 0.0 0 34.8 0.0 1012.0 0.0 7.4 7.4 0.0
17/08/18 01:19 7.4 49 -2.6 0.0 0.0 0 34.8 0.0 1012.0 0.0 7.4 7.4 0.0
17/08/18 01:18 7.4 49 -2.6 0.0 0.0 0 34.8 0.0 1013.0 0.0 7.4 7.4 0.0
17/08/18 01:15 7.4 49 -2.6 0.0 0.0 0 0.0 0.0 1012.0 0.0 7.4 7.4 0.0
17/08/18 01:14 7.4 49 -2.6 0.0 0.0 0 0.0 0.0 1012.0 0.0 7.4 7.4 0.0
17/08/18 01:13 7.4 49 -2.6 0.0 0.0 0 0.0 0.0 1012.0 0.0 7.4 7.4 0.0
17/08/18 01:12 7.4 49 -2.6 0.0 0.0 0 0.0 0.0 1012.0 0.0 7.4 7.4 0.0
17/08/18 01:11 7.4 49 -2.6 0.0 0.0 0 0.0 0.0 1012.0 0.0 7.4 7.4 0.0
17/08/18 01:10 7.4 49 -2.6 0.0 0.0 0 0.0 0.0 1012.0 0.0 7.4 7.4 0.0
17/08/18 01:09 7.4 49 -2.6 0.0 0.0 0 0.0 0.0 1012.0 0.0 7.4 7.4 0.0
17/08/18 01:08 7.4 49 -2.6 0.0 0.0 0 0.0 0.0 1012.0 0.0 7.4 7.4 0.0
17/08/18 01:07 7.4 49 -2.6 0.0 0.0 0 0.0 0.0 1012.0 0.0 0.0 7.4 0.0
17/08/18 00:59 7.8 49 -2.3 0.0 0.0 0 0.0 0.0 1012.0 0.0 8.0 7.8 0.0
17/08/18 00:58 8.0 47 -2.6 0.0 0.0 0 0.0 0.0 1012.0 0.0 8.0 8.0 0.0
17/08/18 00:57 8.0 47 -2.6 0.0 0.0 0 0.0 0.0 1012.0 0.0 8.0 8.0 0.0
17/08/18 00:56 8.0 47 -2.6 0.0 0.0 0 0.0 0.0 1012.0 0.0 8.0 8.0 0.0
17/08/18 00:55 8.0 47 -2.6 0.0 0.0 0 0.0 0.0 1012.0 0.0 8.0 8.0 0.0
17/08/18 00:54 8.0 47 -2.6 0.0 0.0 0 0.0 0.0 1012.0 0.0 8.0 8.0 0.0
17/08/18 00:53 8.0 47 -2.6 0.0 0.0 0 0.0 0.0 1012.0 0.0 8.0 8.0 0.0
17/08/18 00:52 8.0 47 -2.6 0.0 0.0 0 0.0 0.0 1013.0 0.0 8.0 8.0 0.0
17/08/18 00:51 8.0 47 -2.6 0.0 0.0 0 0.0 0.0 1013.0 0.0 8.0 8.0 0.0
17/08/18 00:50 8.0 47 -2.6 0.0 0.0 0 0.0 0.0 1013.0 0.0 8.0 8.0 0.0
17/08/18 00:49 8.0 47 -2.6 0.0 0.0 0 0.0 0.0 1013.0 0.0 8.0 8.0 0.0
17/08/18 00:48 8.0 47 -2.6 0.0 0.0 0 0.0 0.0 1013.0 0.0 8.0 8.0 0.0
17/08/18 00:47 8.0 47 -2.6 0.0 0.0 0 0.0 0.0 1013.0 0.0 8.0 8.0 0.0
17/08/18 00:46 8.0 47 -2.6 0.0 0.0 0 0.0 0.0 1013.0 0.0 8.0 8.0 0.0
17/08/18 00:45 8.0 47 -2.6 0.0 0.0 0 0.0 0.0 1013.0 0.0 8.0 8.0 0.0
17/08/18 00:44 8.0 47 -2.6 0.0 0.0 0 0.0 0.0 1013.0 0.0 8.0 8.0 0.0
17/08/18 00:43 8.0 47 -2.6 0.0 0.0 0 0.0 0.0 1013.0 0.0 8.0 8.0 0.0
17/08/18 00:42 8.3 45 -3.0 0.0 0.0 0 0.0 0.0 1013.0 0.0 8.3 8.3 0.0
17/08/18 00:41 8.3 45 -3.0 0.0 0.0 0 0.0 0.0 1013.0 0.0 8.3 8.3 0.0
17/08/18 00:40 8.3 45 -3.0 0.0 0.0 0 0.0 0.0 1013.0 0.0 8.3 8.3 0.0
17/08/18 00:39 8.3 45 -3.0 0.0 0.0 0 0.0 0.0 1013.0 0.0 8.3 8.3 0.0
17/08/18 00:38 8.3 45 -3.0 0.0 0.0 0 0.0 0.0 1013.0 0.0 8.3 8.3 0.0
17/08/18 00:37 8.3 45 -3.0 0.0 0.0 0 0.0 0.0 1013.0 0.0 8.3 8.3 0.0
17/08/18 00:36 8.3 45 -3.0 0.0 0.0 0 0.0 0.0 1013.0 0.0 8.3 8.3 0.0
17/08/18 00:35 8.3 45 -3.0 0.0 0.0 0 0.0 0.0 1013.0 0.0 8.3 8.3 0.0
17/08/18 00:34 8.3 45 -3.0 0.0 0.0 0 0.0 0.0 1013.0 0.0 8.3 8.3 0.0
17/08/18 00:33 8.3 45 -3.0 0.0 0.0 0 0.0 0.0 1013.0 0.0 8.3 8.3 0.0
17/08/18 00:32 8.3 45 -3.0 0.0 0.0 0 0.0 0.0 1013.0 0.0 8.3 8.3 0.0
17/08/18 00:31 8.3 45 -3.0 0.0 0.0 0 0.0 0.0 1013.0 0.0 8.3 8.3 0.0
17/08/18 00:30 8.3 45 -3.0 0.0 0.0 0 0.0 0.0 1013.0 0.0 8.3 8.3 0.0
17/08/18 00:29 8.3 45 -3.0 0.0 0.0 0 0.0 0.0 1013.0 0.0 8.3 8.3 0.0
17/08/18 00:28 8.3 45 -3.0 0.0 0.0 0 0.0 0.0 1013.0 0.0 8.3 8.3 0.0
17/08/18 00:27 8.3 45 -3.0 0.0 0.0 0 0.0 0.0 1013.0 0.0 8.3 8.3 0.0
17/08/18 00:26 8.3 45 -3.0 0.0 0.0 0 0.0 0.0 1013.0 0.0 8.3 8.3 0.0
17/08/18 00:25 8.3 45 -3.0 0.0 0.0 0 0.0 0.0 1013.0 0.0 8.3 8.3 0.0
17/08/18 00:24 8.3 45 -3.0 0.0 0.0 0 0.0 0.0 1013.0 0.0 8.3 8.3 0.0
17/08/18 00:23 8.3 45 -3.0 0.0 0.0 0 0.0 0.0 1013.0 0.0 8.3 8.3 0.0
17/08/18 00:22 8.3 45 -3.0 0.0 0.0 0 0.0 0.0 1012.0 0.0 8.3 8.3 0.0
17/08/18 00:21 8.3 45 -3.0 0.0 0.0 0 0.0 0.0 1012.0 0.0 8.3 8.3 0.0
17/08/18 00:20 8.3 45 -3.0 0.0 0.0 0 0.0 0.0 1012.0 0.0 8.3 8.3 0.0
17/08/18 00:19 8.3 45 -3.0 0.0 0.0 0 0.0 0.0 1012.0 0.0 8.3 8.3 0.0
17/08/18 00:18 8.3 45 -3.0 0.0 0.0 0 0.0 0.0 1012.0 0.0 8.3 8.3 0.0
17/08/18 00:17 8.3 45 -3.0 0.0 0.0 0 0.0 0.0 1012.0 0.0 8.3 8.3 0.0
17/08/18 00:16 8.3 45 -3.0 0.0 0.0 0 0.0 0.0 1012.0 0.0 8.3 8.3 0.0
17/08/18 00:15 8.3 45 -3.0 0.0 0.0 0 0.0 0.0 1012.0 0.0 8.3 8.3 0.0
17/08/18 00:14 8.3 45 -3.0 0.0 0.0 0 0.0 0.0 1012.0 0.0 8.3 8.3 0.0
17/08/18 00:13 8.3 45 -3.0 0.0 0.0 0 0.0 0.0 1012.0 0.0 8.3 8.3 0.0
17/08/18 00:12 8.3 45 -3.0 0.0 0.0 0 0.0 0.0 1012.0 0.0 8.3 8.3 0.0
17/08/18 00:11 8.3 44 -3.3 0.0 0.0 0 0.0 0.0 1012.0 0.0 8.3 8.3 0.0
17/08/18 00:10 8.3 44 -3.3 0.0 0.0 0 0.0 0.0 1012.0 0.0 8.3 8.3 0.0
17/08/18 00:09 8.3 44 -3.3 0.0 0.0 0 0.0 0.0 1012.0 0.0 8.3 8.3 0.0
17/08/18 00:08 8.4 44 -3.2 0.0 0.0 0 0.0 0.0 1012.0 0.0 8.4 8.4 0.0
17/08/18 00:07 8.4 44 -3.2 0.0 0.0 0 0.0 0.0 1013.0 0.0 8.4 8.4 0.0
17/08/18 00:06 8.4 44 -3.2 0.0 0.0 0 0.0 0.0 1013.0 0.0 8.4 8.4 0.0
17/08/18 00:05 8.4 44 -3.2 0.0 0.0 0 0.0 0.0 1013.0 0.0 8.4 8.4 0.0
17/08/18 00:04 8.4 44 -3.2 0.0 0.0 0 0.0 0.0 1013.0 0.0 8.4 8.4 0.0
17/08/18 00:03 8.4 43 -3.5 0.0 0.0 0 0.0 0.0 1013.0 0.0 8.4 8.4 0.0
17/08/18 00:02 8.5 43 -3.4 0.0 0.0 0 0.0 0.0 1013.0 0.0 8.5 8.5 0.0
  Back to Top


This site is NOT a professional weather site.
Never base important decisions on this or any weather information obtained from the Internet.
Website Supported by Cumulus. Contact me Admin